sensor_id;sensor_type;location;lat;lon;timestamp;P1;durP1;ratioP1;P2;durP2;ratioP2
4577;SDS011;2301;47.354;8.528;2023-04-24T00:02:02;2.93;;;1.70;;
4577;SDS011;2301;47.354;8.528;2023-04-24T00:04:31;2.50;;;1.70;;
4577;SDS011;2301;47.354;8.528;2023-04-24T00:06:58;1.80;;;1.50;;
4577;SDS011;2301;47.354;8.528;2023-04-24T00:09:25;2.00;;;1.40;;
4577;SDS011;2301;47.354;8.528;2023-04-24T00:11:52;5.90;;;1.77;;
4577;SDS011;2301;47.354;8.528;2023-04-24T00:14:21;3.37;;;1.70;;
4577;SDS011;2301;47.354;8.528;2023-04-24T00:16:48;2.90;;;1.53;;
4577;SDS011;2301;47.354;8.528;2023-04-24T00:19:15;2.20;;;1.63;;
4577;SDS011;2301;47.354;8.528;2023-04-24T00:21:42;3.80;;;1.27;;
4577;SDS011;2301;47.354;8.528;2023-04-24T00:24:09;1.87;;;1.20;;
4577;SDS011;2301;47.354;8.528;2023-04-24T00:26:36;4.20;;;1.80;;
4577;SDS011;2301;47.354;8.528;2023-04-24T00:29:03;2.30;;;1.53;;
4577;SDS011;2301;47.354;8.528;2023-04-24T00:31:31;2.40;;;1.60;;
4577;SDS011;2301;47.354;8.528;2023-04-24T00:33:59;2.30;;;1.67;;
4577;SDS011;2301;47.354;8.528;2023-04-24T00:36:27;2.10;;;1.40;;
4577;SDS011;2301;47.354;8.528;2023-04-24T00:38:54;2.10;;;1.40;;
4577;SDS011;2301;47.354;8.528;2023-04-24T00:41:21;2.00;;;1.40;;
4577;SDS011;2301;47.354;8.528;2023-04-24T00:43:48;2.40;;;1.50;;
4577;SDS011;2301;47.354;8.528;2023-04-24T00:46:15;1.50;;;1.10;;
4577;SDS011;2301;47.354;8.528;2023-04-24T00:48:44;2.47;;;1.50;;
4577;SDS011;2301;47.354;8.528;2023-04-24T00:51:11;2.97;;;1.83;;
4577;SDS011;2301;47.354;8.528;2023-04-24T00:53:39;2.57;;;1.80;;
4577;SDS011;2301;47.354;8.528;2023-04-24T00:56:06;2.13;;;1.20;;
4577;SDS011;2301;47.354;8.528;2023-04-24T00:58:33;1.50;;;1.17;;
4577;SDS011;2301;47.354;8.528;2023-04-24T01:01:00;1.60;;;1.20;;
4577;SDS011;2301;47.354;8.528;2023-04-24T01:03:32;1.70;;;1.20;;
4577;SDS011;2301;47.354;8.528;2023-04-24T01:06:03;1.80;;;1.27;;
4577;SDS011;2301;47.354;8.528;2023-04-24T01:08:31;3.40;;;1.40;;
4577;SDS011;2301;47.354;8.528;2023-04-24T01:11:01;2.23;;;1.40;;
4577;SDS011;2301;47.354;8.528;2023-04-24T01:13:30;1.93;;;1.20;;
4577;SDS011;2301;47.354;8.528;2023-04-24T01:15:58;3.60;;;1.50;;
4577;SDS011;2301;47.354;8.528;2023-04-24T01:18:25;1.97;;;1.57;;
4577;SDS011;2301;47.354;8.528;2023-04-24T01:20:53;1.80;;;1.33;;
4577;SDS011;2301;47.354;8.528;2023-04-24T01:23:24;3.53;;;1.30;;
4577;SDS011;2301;47.354;8.528;2023-04-24T01:25:51;1.70;;;1.40;;
4577;SDS011;2301;47.354;8.528;2023-04-24T01:28:18;1.60;;;1.20;;
4577;SDS011;2301;47.354;8.528;2023-04-24T01:30:45;1.40;;;1.17;;
4577;SDS011;2301;47.354;8.528;2023-04-24T01:33:12;1.50;;;1.20;;
4577;SDS011;2301;47.354;8.528;2023-04-24T01:35:40;1.90;;;1.47;;
4577;SDS011;2301;47.354;8.528;2023-04-24T01:38:07;2.00;;;1.20;;
4577;SDS011;2301;47.354;8.528;2023-04-24T01:40:36;1.53;;;1.20;;
4577;SDS011;2301;47.354;8.528;2023-04-24T01:43:03;1.30;;;1.10;;
4577;SDS011;2301;47.354;8.528;2023-04-24T01:45:30;1.80;;;1.20;;
4577;SDS011;2301;47.354;8.528;2023-04-24T01:47:57;1.93;;;1.20;;
4577;SDS011;2301;47.354;8.528;2023-04-24T01:50:24;2.17;;;1.33;;
4577;SDS011;2301;47.354;8.528;2023-04-24T01:52:51;1.83;;;1.20;;
4577;SDS011;2301;47.354;8.528;2023-04-24T01:55:18;1.60;;;1.20;;
4577;SDS011;2301;47.354;8.528;2023-04-24T01:57:47;2.20;;;1.23;;
4577;SDS011;2301;47.354;8.528;2023-04-24T02:00:21;1.90;;;1.10;;
4577;SDS011;2301;47.354;8.528;2023-04-24T02:02:50;1.83;;;1.13;;
4577;SDS011;2301;47.354;8.528;2023-04-24T02:05:17;1.77;;;1.10;;
4577;SDS011;2301;47.354;8.528;2023-04-24T02:07:44;2.00;;;1.27;;
4577;SDS011;2301;47.354;8.528;2023-04-24T02:10:11;1.30;;;1.00;;
4577;SDS011;2301;47.354;8.528;2023-04-24T02:12:38;1.97;;;1.27;;
4577;SDS011;2301;47.354;8.528;2023-04-24T02:15:07;1.13;;;0.90;;
4577;SDS011;2301;47.354;8.528;2023-04-24T02:17:35;2.10;;;1.13;;
4577;SDS011;2301;47.354;8.528;2023-04-24T02:20:02;1.50;;;1.10;;
4577;SDS011;2301;47.354;8.528;2023-04-24T02:22:29;2.20;;;1.10;;
4577;SDS011;2301;47.354;8.528;2023-04-24T02:24:57;2.47;;;1.30;;
4577;SDS011;2301;47.354;8.528;2023-04-24T02:27:24;1.70;;;1.30;;
4577;SDS011;2301;47.354;8.528;2023-04-24T02:29:50;1.60;;;1.20;;
4577;SDS011;2301;47.354;8.528;2023-04-24T02:32:19;1.30;;;1.00;;
4577;SDS011;2301;47.354;8.528;2023-04-24T02:34:46;1.67;;;1.20;;
4577;SDS011;2301;47.354;8.528;2023-04-24T02:37:13;1.70;;;1.10;;
4577;SDS011;2301;47.354;8.528;2023-04-24T02:39:40;1.30;;;1.00;;
4577;SDS011;2301;47.354;8.528;2023-04-24T02:42:07;1.43;;;1.10;;
4577;SDS011;2301;47.354;8.528;2023-04-24T02:44:34;1.40;;;1.00;;
4577;SDS011;2301;47.354;8.528;2023-04-24T02:47:01;1.50;;;1.13;;
4577;SDS011;2301;47.354;8.528;2023-04-24T02:49:30;1.80;;;1.20;;
4577;SDS011;2301;47.354;8.528;2023-04-24T02:51:57;1.50;;;1.20;;
4577;SDS011;2301;47.354;8.528;2023-04-24T02:54:24;2.80;;;0.80;;
4577;SDS011;2301;47.354;8.528;2023-04-24T02:56:51;3.23;;;1.03;;
4577;SDS011;2301;47.354;8.528;2023-04-24T02:59:18;1.67;;;1.20;;
4577;SDS011;2301;47.354;8.528;2023-04-24T03:01:45;1.70;;;1.20;;
4577;SDS011;2301;47.354;8.528;2023-04-24T03:04:11;1.57;;;1.10;;
4577;SDS011;2301;47.354;8.528;2023-04-24T03:06:40;1.73;;;1.20;;
4577;SDS011;2301;47.354;8.528;2023-04-24T03:09:07;1.10;;;0.80;;
4577;SDS011;2301;47.354;8.528;2023-04-24T03:11:34;1.60;;;1.10;;
4577;SDS011;2301;47.354;8.528;2023-04-24T03:14:01;3.03;;;1.27;;
4577;SDS011;2301;47.354;8.528;2023-04-24T03:16:28;1.20;;;0.90;;
4577;SDS011;2301;47.354;8.528;2023-04-24T03:18:54;1.40;;;0.90;;
4577;SDS011;2301;47.354;8.528;2023-04-24T03:21:22;1.27;;;0.80;;
4577;SDS011;2301;47.354;8.528;2023-04-24T03:23:50;1.70;;;1.00;;
4577;SDS011;2301;47.354;8.528;2023-04-24T03:26:17;1.40;;;1.00;;
4577;SDS011;2301;47.354;8.528;2023-04-24T03:28:44;1.40;;;1.10;;
4577;SDS011;2301;47.354;8.528;2023-04-24T03:31:11;1.40;;;0.90;;
4577;SDS011;2301;47.354;8.528;2023-04-24T03:33:38;3.37;;;1.10;;
4577;SDS011;2301;47.354;8.528;2023-04-24T03:36:05;1.13;;;0.90;;
4577;SDS011;2301;47.354;8.528;2023-04-24T03:38:32;1.80;;;1.10;;
4577;SDS011;2301;47.354;8.528;2023-04-24T03:41:00;1.40;;;0.93;;
4577;SDS011;2301;47.354;8.528;2023-04-24T03:43:28;1.30;;;1.10;;
4577;SDS011;2301;47.354;8.528;2023-04-24T03:45:55;1.30;;;0.90;;
4577;SDS011;2301;47.354;8.528;2023-04-24T03:48:22;1.47;;;0.90;;
4577;SDS011;2301;47.354;8.528;2023-04-24T03:50:48;1.67;;;1.30;;
4577;SDS011;2301;47.354;8.528;2023-04-24T03:53:16;1.30;;;1.00;;
4577;SDS011;2301;47.354;8.528;2023-04-24T03:55:43;1.60;;;1.07;;
4577;SDS011;2301;47.354;8.528;2023-04-24T03:58:11;1.47;;;0.97;;
4577;SDS011;2301;47.354;8.528;2023-04-24T04:00:39;1.63;;;1.10;;
4577;SDS011;2301;47.354;8.528;2023-04-24T04:03:06;1.40;;;1.00;;
4577;SDS011;2301;47.354;8.528;2023-04-24T04:05:33;1.40;;;1.00;;
4577;SDS011;2301;47.354;8.528;2023-04-24T04:08:00;1.40;;;1.00;;
4577;SDS011;2301;47.354;8.528;2023-04-24T04:10:27;1.30;;;1.00;;
4577;SDS011;2301;47.354;8.528;2023-04-24T04:12:57;1.30;;;1.00;;
4577;SDS011;2301;47.354;8.528;2023-04-24T04:15:25;1.80;;;1.00;;
4577;SDS011;2301;47.354;8.528;2023-04-24T04:17:52;2.50;;;0.87;;
4577;SDS011;2301;47.354;8.528;2023-04-24T04:20:19;1.40;;;0.90;;
4577;SDS011;2301;47.354;8.528;2023-04-24T04:22:46;1.50;;;0.97;;
4577;SDS011;2301;47.354;8.528;2023-04-24T04:25:13;1.70;;;1.10;;
4577;SDS011;2301;47.354;8.528;2023-04-24T04:27:40;1.70;;;1.07;;
4577;SDS011;2301;47.354;8.528;2023-04-24T04:30:07;1.37;;;0.90;;
4577;SDS011;2301;47.354;8.528;2023-04-24T04:32:36;1.27;;;1.00;;
4577;SDS011;2301;47.354;8.528;2023-04-24T04:35:03;1.70;;;0.97;;
4577;SDS011;2301;47.354;8.528;2023-04-24T04:37:31;1.20;;;0.80;;
4577;SDS011;2301;47.354;8.528;2023-04-24T04:39:58;1.60;;;1.00;;
4577;SDS011;2301;47.354;8.528;2023-04-24T04:42:26;1.90;;;1.10;;
4577;SDS011;2301;47.354;8.528;2023-04-24T04:44:53;1.40;;;0.87;;
4577;SDS011;2301;47.354;8.528;2023-04-24T04:47:21;1.23;;;0.93;;
4577;SDS011;2301;47.354;8.528;2023-04-24T04:49:50;1.40;;;1.00;;
4577;SDS011;2301;47.354;8.528;2023-04-24T04:52:17;4.00;;;1.10;;
4577;SDS011;2301;47.354;8.528;2023-04-24T04:54:44;2.40;;;1.07;;
4577;SDS011;2301;47.354;8.528;2023-04-24T04:57:11;1.30;;;1.00;;
4577;SDS011;2301;47.354;8.528;2023-04-24T04:59:38;1.40;;;0.90;;
4577;SDS011;2301;47.354;8.528;2023-04-24T05:02:06;1.87;;;0.90;;
4577;SDS011;2301;47.354;8.528;2023-04-24T05:04:33;2.17;;;0.83;;
4577;SDS011;2301;47.354;8.528;2023-04-24T05:07:01;1.23;;;0.90;;
4577;SDS011;2301;47.354;8.528;2023-04-24T05:09:28;1.33;;;0.93;;
4577;SDS011;2301;47.354;8.528;2023-04-24T05:11:55;20.53;;;1.30;;
4577;SDS011;2301;47.354;8.528;2023-04-24T05:14:22;1.30;;;1.00;;
4577;SDS011;2301;47.354;8.528;2023-04-24T05:16:49;2.37;;;1.10;;
4577;SDS011;2301;47.354;8.528;2023-04-24T05:19:16;3.80;;;0.93;;
4577;SDS011;2301;47.354;8.528;2023-04-24T05:21:43;4.77;;;1.10;;
4577;SDS011;2301;47.354;8.528;2023-04-24T05:24:12;1.50;;;0.90;;
4577;SDS011;2301;47.354;8.528;2023-04-24T05:26:39;1.40;;;0.90;;
4577;SDS011;2301;47.354;8.528;2023-04-24T05:29:06;1.70;;;1.20;;
4577;SDS011;2301;47.354;8.528;2023-04-24T05:31:33;2.10;;;1.03;;
4577;SDS011;2301;47.354;8.528;2023-04-24T05:33:59;1.20;;;0.90;;
4577;SDS011;2301;47.354;8.528;2023-04-24T05:36:26;2.00;;;0.90;;
4577;SDS011;2301;47.354;8.528;2023-04-24T05:38:53;1.00;;;0.70;;
4577;SDS011;2301;47.354;8.528;2023-04-24T05:41:22;2.70;;;0.90;;
4577;SDS011;2301;47.354;8.528;2023-04-24T05:43:50;3.50;;;0.90;;
4577;SDS011;2301;47.354;8.528;2023-04-24T05:46:17;1.60;;;1.00;;
4577;SDS011;2301;47.354;8.528;2023-04-24T05:48:43;1.30;;;0.90;;
4577;SDS011;2301;47.354;8.528;2023-04-24T05:51:11;1.63;;;1.10;;
4577;SDS011;2301;47.354;8.528;2023-04-24T05:53:38;2.80;;;1.10;;
4577;SDS011;2301;47.354;8.528;2023-04-24T05:56:05;5.23;;;1.30;;
4577;SDS011;2301;47.354;8.528;2023-04-24T05:58:33;1.60;;;1.00;;
4577;SDS011;2301;47.354;8.528;2023-04-24T06:01:00;1.60;;;0.90;;
4577;SDS011;2301;47.354;8.528;2023-04-24T06:03:28;1.40;;;0.90;;
4577;SDS011;2301;47.354;8.528;2023-04-24T06:05:55;1.43;;;0.90;;
4577;SDS011;2301;47.354;8.528;2023-04-24T06:08:22;2.63;;;1.10;;
4577;SDS011;2301;47.354;8.528;2023-04-24T06:10:49;1.13;;;0.80;;
4577;SDS011;2301;47.354;8.528;2023-04-24T06:13:16;1.20;;;0.80;;
4577;SDS011;2301;47.354;8.528;2023-04-24T06:15:44;1.20;;;0.80;;
4577;SDS011;2301;47.354;8.528;2023-04-24T06:18:11;1.57;;;0.87;;
4577;SDS011;2301;47.354;8.528;2023-04-24T06:20:38;1.55;;;1.00;;
4577;SDS011;2301;47.354;8.528;2023-04-24T06:23:05;1.50;;;0.80;;
4577;SDS011;2301;47.354;8.528;2023-04-24T06:25:32;1.83;;;0.97;;
4577;SDS011;2301;47.354;8.528;2023-04-24T06:27:59;1.20;;;0.80;;
4577;SDS011;2301;47.354;8.528;2023-04-24T06:30:26;2.00;;;0.90;;
4577;SDS011;2301;47.354;8.528;2023-04-24T06:32:55;1.40;;;0.95;;
4577;SDS011;2301;47.354;8.528;2023-04-24T06:35:22;1.33;;;0.85;;
4577;SDS011;2301;47.354;8.528;2023-04-24T06:37:49;1.60;;;0.90;;
4577;SDS011;2301;47.354;8.528;2023-04-24T06:40:17;1.15;;;0.80;;
4577;SDS011;2301;47.354;8.528;2023-04-24T06:42:44;1.60;;;0.90;;
4577;SDS011;2301;47.354;8.528;2023-04-24T06:45:11;2.28;;;1.00;;
4577;SDS011;2301;47.354;8.528;2023-04-24T06:47:40;1.40;;;1.00;;
4577;SDS011;2301;47.354;8.528;2023-04-24T06:50:13;2.20;;;0.95;;
4577;SDS011;2301;47.354;8.528;2023-04-24T06:52:45;1.50;;;0.93;;
4577;SDS011;2301;47.354;8.528;2023-04-24T06:55:12;2.43;;;1.10;;
4577;SDS011;2301;47.354;8.528;2023-04-24T06:57:41;1.50;;;1.10;;
4577;SDS011;2301;47.354;8.528;2023-04-24T07:00:09;2.20;;;1.00;;
4577;SDS011;2301;47.354;8.528;2023-04-24T07:02:37;3.30;;;1.03;;
4577;SDS011;2301;47.354;8.528;2023-04-24T07:05:04;1.30;;;1.00;;
4577;SDS011;2301;47.354;8.528;2023-04-24T07:07:34;1.60;;;1.00;;
4577;SDS011;2301;47.354;8.528;2023-04-24T07:10:03;2.05;;;1.10;;
4577;SDS011;2301;47.354;8.528;2023-04-24T07:12:30;2.97;;;1.17;;
4577;SDS011;2301;47.354;8.528;2023-04-24T07:14:58;2.80;;;1.07;;
4577;SDS011;2301;47.354;8.528;2023-04-24T07:17:25;5.23;;;1.20;;
4577;SDS011;2301;47.354;8.528;2023-04-24T07:19:52;1.80;;;0.95;;
4577;SDS011;2301;47.354;8.528;2023-04-24T07:22:18;5.70;;;1.03;;
4577;SDS011;2301;47.354;8.528;2023-04-24T07:24:53;2.03;;;1.10;;
4577;SDS011;2301;47.354;8.528;2023-04-24T07:27:24;1.60;;;1.00;;
4577;SDS011;2301;47.354;8.528;2023-04-24T07:29:55;1.40;;;1.00;;
4577;SDS011;2301;47.354;8.528;2023-04-24T07:32:25;2.30;;;1.37;;
4577;SDS011;2301;47.354;8.528;2023-04-24T07:34:52;1.90;;;1.23;;
4577;SDS011;2301;47.354;8.528;2023-04-24T07:37:19;1.87;;;1.10;;
4577;SDS011;2301;47.354;8.528;2023-04-24T07:39:46;3.50;;;1.20;;
4577;SDS011;2301;47.354;8.528;2023-04-24T07:42:15;2.90;;;1.13;;
4577;SDS011;2301;47.354;8.528;2023-04-24T07:44:42;3.20;;;1.50;;
4577;SDS011;2301;47.354;8.528;2023-04-24T07:47:09;2.50;;;1.23;;
4577;SDS011;2301;47.354;8.528;2023-04-24T07:49:36;2.50;;;1.20;;
4577;SDS011;2301;47.354;8.528;2023-04-24T07:52:03;1.83;;;0.97;;
4577;SDS011;2301;47.354;8.528;2023-04-24T07:54:31;1.93;;;1.30;;
4577;SDS011;2301;47.354;8.528;2023-04-24T07:56:58;5.70;;;1.40;;
4577;SDS011;2301;47.354;8.528;2023-04-24T07:59:26;3.00;;;1.50;;
4577;SDS011;2301;47.354;8.528;2023-04-24T08:01:53;1.87;;;1.30;;
4577;SDS011;2301;47.354;8.528;2023-04-24T08:04:20;2.60;;;1.17;;
4577;SDS011;2301;47.354;8.528;2023-04-24T08:06:47;2.47;;;1.30;;
4577;SDS011;2301;47.354;8.528;2023-04-24T08:09:15;3.13;;;1.50;;
4577;SDS011;2301;47.354;8.528;2023-04-24T08:11:42;2.17;;;1.40;;
4577;SDS011;2301;47.354;8.528;2023-04-24T08:14:09;3.50;;;1.70;;
4577;SDS011;2301;47.354;8.528;2023-04-24T08:16:39;3.60;;;1.40;;
4577;SDS011;2301;47.354;8.528;2023-04-24T08:19:06;3.30;;;1.40;;
4577;SDS011;2301;47.354;8.528;2023-04-24T08:21:33;3.37;;;1.53;;
4577;SDS011;2301;47.354;8.528;2023-04-24T08:24:00;2.90;;;1.40;;
4577;SDS011;2301;47.354;8.528;2023-04-24T08:26:30;4.28;;;2.00;;
4577;SDS011;2301;47.354;8.528;2023-04-24T08:28:57;2.27;;;1.40;;
4577;SDS011;2301;47.354;8.528;2023-04-24T08:31:24;5.60;;;1.60;;
4577;SDS011;2301;47.354;8.528;2023-04-24T08:33:53;2.80;;;1.80;;
4577;SDS011;2301;47.354;8.528;2023-04-24T08:36:20;4.40;;;1.52;;
4577;SDS011;2301;47.354;8.528;2023-04-24T08:38:47;4.90;;;1.70;;
4577;SDS011;2301;47.354;8.528;2023-04-24T08:41:14;4.30;;;1.38;;
4577;SDS011;2301;47.354;8.528;2023-04-24T08:43:42;4.05;;;1.58;;
4577;SDS011;2301;47.354;8.528;2023-04-24T08:46:09;3.03;;;1.53;;
4577;SDS011;2301;47.354;8.528;2023-04-24T08:48:37;4.40;;;1.50;;
4577;SDS011;2301;47.354;8.528;2023-04-24T08:51:07;3.60;;;1.50;;
4577;SDS011;2301;47.354;8.528;2023-04-24T08:53:36;2.97;;;1.83;;
4577;SDS011;2301;47.354;8.528;2023-04-24T08:56:03;3.37;;;1.90;;
4577;SDS011;2301;47.354;8.528;2023-04-24T08:58:31;5.23;;;2.07;;
4577;SDS011;2301;47.354;8.528;2023-04-24T09:00:58;5.30;;;1.97;;
4577;SDS011;2301;47.354;8.528;2023-04-24T09:03:26;3.77;;;1.60;;
4577;SDS011;2301;47.354;8.528;2023-04-24T09:05:54;3.03;;;2.07;;
4577;SDS011;2301;47.354;8.528;2023-04-24T09:08:25;2.40;;;1.90;;
4577;SDS011;2301;47.354;8.528;2023-04-24T09:10:53;3.70;;;1.67;;
4577;SDS011;2301;47.354;8.528;2023-04-24T09:13:23;3.57;;;1.97;;
4577;SDS011;2301;47.354;8.528;2023-04-24T09:15:50;6.20;;;1.53;;
4577;SDS011;2301;47.354;8.528;2023-04-24T09:18:18;3.17;;;1.70;;
4577;SDS011;2301;47.354;8.528;2023-04-24T09:20:58;3.00;;;1.47;;
4577;SDS011;2301;47.354;8.528;2023-04-24T09:23:28;2.80;;;1.53;;
4577;SDS011;2301;47.354;8.528;2023-04-24T09:25:57;3.80;;;1.53;;
4577;SDS011;2301;47.354;8.528;2023-04-24T09:28:25;2.70;;;1.70;;
4577;SDS011;2301;47.354;8.528;2023-04-24T09:31:03;3.87;;;1.87;;
4577;SDS011;2301;47.354;8.528;2023-04-24T09:33:31;3.60;;;1.80;;
4577;SDS011;2301;47.354;8.528;2023-04-24T09:35:58;5.70;;;1.80;;
4577;SDS011;2301;47.354;8.528;2023-04-24T09:38:34;7.97;;;1.60;;
4577;SDS011;2301;47.354;8.528;2023-04-24T09:41:01;5.43;;;2.07;;
4577;SDS011;2301;47.354;8.528;2023-04-24T09:43:30;4.00;;;1.90;;
4577;SDS011;2301;47.354;8.528;2023-04-24T09:45:59;5.97;;;1.70;;
4577;SDS011;2301;47.354;8.528;2023-04-24T09:48:32;4.33;;;1.93;;
4577;SDS011;2301;47.354;8.528;2023-04-24T09:51:00;3.63;;;1.43;;
4577;SDS011;2301;47.354;8.528;2023-04-24T09:53:28;3.50;;;1.90;;
4577;SDS011;2301;47.354;8.528;2023-04-24T09:55:58;6.10;;;2.00;;
4577;SDS011;2301;47.354;8.528;2023-04-24T09:58:29;3.03;;;1.60;;
4577;SDS011;2301;47.354;8.528;2023-04-24T10:00:56;6.33;;;2.00;;
4577;SDS011;2301;47.354;8.528;2023-04-24T10:03:24;4.17;;;1.70;;
4577;SDS011;2301;47.354;8.528;2023-04-24T10:05:53;3.13;;;1.67;;
4577;SDS011;2301;47.354;8.528;2023-04-24T10:08:23;2.87;;;1.60;;
4577;SDS011;2301;47.354;8.528;2023-04-24T10:10:52;2.80;;;2.10;;
4577;SDS011;2301;47.354;8.528;2023-04-24T10:13:21;3.67;;;1.85;;
4577;SDS011;2301;47.354;8.528;2023-04-24T10:15:48;2.67;;;1.47;;
4577;SDS011;2301;47.354;8.528;2023-04-24T10:18:16;2.57;;;1.60;;
4577;SDS011;2301;47.354;8.528;2023-04-24T10:20:43;5.13;;;1.77;;
4577;SDS011;2301;47.354;8.528;2023-04-24T10:23:11;2.03;;;1.57;;
4577;SDS011;2301;47.354;8.528;2023-04-24T10:25:38;2.47;;;1.60;;
4577;SDS011;2301;47.354;8.528;2023-04-24T10:28:06;2.53;;;1.60;;
4577;SDS011;2301;47.354;8.528;2023-04-24T10:30:36;3.20;;;1.60;;
4577;SDS011;2301;47.354;8.528;2023-04-24T10:33:05;2.97;;;1.57;;
4577;SDS011;2301;47.354;8.528;2023-04-24T10:35:34;3.50;;;1.73;;
4577;SDS011;2301;47.354;8.528;2023-04-24T10:38:05;4.23;;;1.53;;
4577;SDS011;2301;47.354;8.528;2023-04-24T10:40:35;4.13;;;1.67;;
4577;SDS011;2301;47.354;8.528;2023-04-24T10:43:03;2.73;;;1.77;;
4577;SDS011;2301;47.354;8.528;2023-04-24T10:45:31;5.53;;;1.50;;
4577;SDS011;2301;47.354;8.528;2023-04-24T10:48:01;5.17;;;1.93;;
4577;SDS011;2301;47.354;8.528;2023-04-24T10:50:41;3.90;;;1.70;;
4577;SDS011;2301;47.354;8.528;2023-04-24T10:53:12;7.93;;;1.83;;
4577;SDS011;2301;47.354;8.528;2023-04-24T10:55:41;4.40;;;1.80;;
4577;SDS011;2301;47.354;8.528;2023-04-24T10:58:10;6.27;;;1.80;;
4577;SDS011;2301;47.354;8.528;2023-04-24T11:00:37;3.50;;;1.80;;
4577;SDS011;2301;47.354;8.528;2023-04-24T11:03:07;4.77;;;1.47;;
4577;SDS011;2301;47.354;8.528;2023-04-24T11:08:36;2.77;;;1.40;;
4577;SDS011;2301;47.354;8.528;2023-04-24T11:11:08;5.77;;;2.20;;
4577;SDS011;2301;47.354;8.528;2023-04-24T11:16:29;5.27;;;1.80;;
4577;SDS011;2301;47.354;8.528;2023-04-24T11:19:03;3.90;;;1.63;;
4577;SDS011;2301;47.354;8.528;2023-04-24T11:21:31;5.80;;;2.20;;
4577;SDS011;2301;47.354;8.528;2023-04-24T11:24:21;2.37;;;1.70;;
4577;SDS011;2301;47.354;8.528;2023-04-24T11:26:58;4.80;;;1.87;;
4577;SDS011;2301;47.354;8.528;2023-04-24T11:29:44;3.03;;;1.70;;
4577;SDS011;2301;47.354;8.528;2023-04-24T11:32:14;4.73;;;1.70;;
4577;SDS011;2301;47.354;8.528;2023-04-24T11:34:48;3.87;;;1.50;;
4577;SDS011;2301;47.354;8.528;2023-04-24T11:37:16;3.13;;;1.60;;
4577;SDS011;2301;47.354;8.528;2023-04-24T11:39:44;3.23;;;1.70;;
4577;SDS011;2301;47.354;8.528;2023-04-24T11:42:12;2.40;;;1.53;;
4577;SDS011;2301;47.354;8.528;2023-04-24T11:44:41;3.63;;;1.70;;
4577;SDS011;2301;47.354;8.528;2023-04-24T11:47:09;4.23;;;2.00;;
4577;SDS011;2301;47.354;8.528;2023-04-24T11:49:36;2.73;;;1.50;;
4577;SDS011;2301;47.354;8.528;2023-04-24T11:52:05;2.60;;;1.70;;
4577;SDS011;2301;47.354;8.528;2023-04-24T11:54:32;2.77;;;1.70;;
4577;SDS011;2301;47.354;8.528;2023-04-24T11:56:59;2.70;;;1.70;;
4577;SDS011;2301;47.354;8.528;2023-04-24T11:59:34;4.27;;;2.10;;
4577;SDS011;2301;47.354;8.528;2023-04-24T12:02:02;3.23;;;1.53;;
4577;SDS011;2301;47.354;8.528;2023-04-24T12:04:37;3.30;;;1.80;;
4577;SDS011;2301;47.354;8.528;2023-04-24T12:07:08;4.80;;;1.80;;
4577;SDS011;2301;47.354;8.528;2023-04-24T12:09:42;2.53;;;1.60;;
4577;SDS011;2301;47.354;8.528;2023-04-24T12:12:10;9.73;;;1.60;;
4577;SDS011;2301;47.354;8.528;2023-04-24T12:14:44;8.13;;;2.00;;
4577;SDS011;2301;47.354;8.528;2023-04-24T12:17:15;4.13;;;1.97;;
4577;SDS011;2301;47.354;8.528;2023-04-24T12:19:46;4.73;;;1.87;;
4577;SDS011;2301;47.354;8.528;2023-04-24T12:22:15;4.10;;;2.20;;
4577;SDS011;2301;47.354;8.528;2023-04-24T12:24:55;4.33;;;1.63;;
4577;SDS011;2301;47.354;8.528;2023-04-24T12:27:23;4.73;;;1.80;;
4577;SDS011;2301;47.354;8.528;2023-04-24T12:29:53;3.40;;;2.00;;
4577;SDS011;2301;47.354;8.528;2023-04-24T12:32:22;7.77;;;2.20;;
4577;SDS011;2301;47.354;8.528;2023-04-24T12:34:51;4.93;;;2.10;;
4577;SDS011;2301;47.354;8.528;2023-04-24T12:37:20;12.23;;;1.93;;
4577;SDS011;2301;47.354;8.528;2023-04-24T12:39:58;4.53;;;1.57;;
4577;SDS011;2301;47.354;8.528;2023-04-24T12:42:26;2.50;;;1.60;;
4577;SDS011;2301;47.354;8.528;2023-04-24T12:44:56;3.83;;;1.67;;
4577;SDS011;2301;47.354;8.528;2023-04-24T12:47:24;2.50;;;1.50;;
4577;SDS011;2301;47.354;8.528;2023-04-24T12:49:51;2.93;;;1.50;;
4577;SDS011;2301;47.354;8.528;2023-04-24T12:52:24;3.70;;;1.47;;
4577;SDS011;2301;47.354;8.528;2023-04-24T12:54:52;3.50;;;1.40;;
4577;SDS011;2301;47.354;8.528;2023-04-24T12:57:20;3.43;;;1.50;;
4577;SDS011;2301;47.354;8.528;2023-04-24T12:59:57;3.83;;;1.90;;
4577;SDS011;2301;47.354;8.528;2023-04-24T13:02:25;2.47;;;1.37;;
4577;SDS011;2301;47.354;8.528;2023-04-24T13:04:54;5.40;;;1.60;;
4577;SDS011;2301;47.354;8.528;2023-04-24T13:07:22;4.80;;;1.73;;
4577;SDS011;2301;47.354;8.528;2023-04-24T13:09:49;2.03;;;1.33;;
4577;SDS011;2301;47.354;8.528;2023-04-24T13:12:17;2.80;;;1.60;;
4577;SDS011;2301;47.354;8.528;2023-04-24T13:14:45;3.00;;;1.47;;
4577;SDS011;2301;47.354;8.528;2023-04-24T13:17:12;2.50;;;1.60;;
4577;SDS011;2301;47.354;8.528;2023-04-24T13:19:40;4.20;;;1.60;;
4577;SDS011;2301;47.354;8.528;2023-04-24T13:22:08;4.40;;;1.50;;
4577;SDS011;2301;47.354;8.528;2023-04-24T13:24:38;1.93;;;1.27;;
4577;SDS011;2301;47.354;8.528;2023-04-24T13:27:06;2.10;;;1.30;;
4577;SDS011;2301;47.354;8.528;2023-04-24T13:29:34;2.20;;;1.40;;
4577;SDS011;2301;47.354;8.528;2023-04-24T13:32:01;3.00;;;1.40;;
4577;SDS011;2301;47.354;8.528;2023-04-24T13:34:28;3.20;;;1.60;;
4577;SDS011;2301;47.354;8.528;2023-04-24T13:36:56;2.40;;;1.47;;
4577;SDS011;2301;47.354;8.528;2023-04-24T13:39:24;2.83;;;1.37;;
4577;SDS011;2301;47.354;8.528;2023-04-24T13:41:53;3.00;;;1.33;;
4577;SDS011;2301;47.354;8.528;2023-04-24T13:44:20;4.60;;;1.47;;
4577;SDS011;2301;47.354;8.528;2023-04-24T13:46:49;2.20;;;1.60;;
4577;SDS011;2301;47.354;8.528;2023-04-24T13:49:19;4.70;;;1.80;;
4577;SDS011;2301;47.354;8.528;2023-04-24T13:51:46;3.50;;;1.80;;
4577;SDS011;2301;47.354;8.528;2023-04-24T13:54:14;5.00;;;2.00;;
4577;SDS011;2301;47.354;8.528;2023-04-24T13:56:41;4.63;;;1.97;;
4577;SDS011;2301;47.354;8.528;2023-04-24T13:59:09;5.50;;;2.23;;
4577;SDS011;2301;47.354;8.528;2023-04-24T14:01:37;4.03;;;2.00;;
4577;SDS011;2301;47.354;8.528;2023-04-24T14:04:04;6.03;;;2.33;;
4577;SDS011;2301;47.354;8.528;2023-04-24T14:06:31;4.03;;;1.90;;
4577;SDS011;2301;47.354;8.528;2023-04-24T14:08:58;5.80;;;2.60;;
4577;SDS011;2301;47.354;8.528;2023-04-24T14:11:25;3.30;;;2.00;;
4577;SDS011;2301;47.354;8.528;2023-04-24T14:13:53;4.00;;;2.17;;
4577;SDS011;2301;47.354;8.528;2023-04-24T14:16:23;3.40;;;2.27;;
4577;SDS011;2301;47.354;8.528;2023-04-24T14:18:50;3.43;;;2.20;;
4577;SDS011;2301;47.354;8.528;2023-04-24T14:21:17;2.60;;;1.80;;
4577;SDS011;2301;47.354;8.528;2023-04-24T14:23:44;6.17;;;2.23;;
4577;SDS011;2301;47.354;8.528;2023-04-24T14:26:11;5.40;;;1.87;;
4577;SDS011;2301;47.354;8.528;2023-04-24T14:28:38;13.73;;;2.40;;
4577;SDS011;2301;47.354;8.528;2023-04-24T14:31:06;6.83;;;2.50;;
4577;SDS011;2301;47.354;8.528;2023-04-24T14:33:34;9.60;;;2.27;;
4577;SDS011;2301;47.354;8.528;2023-04-24T14:36:01;3.63;;;1.97;;
4577;SDS011;2301;47.354;8.528;2023-04-24T14:38:30;4.47;;;2.10;;
4577;SDS011;2301;47.354;8.528;2023-04-24T14:40:57;6.43;;;2.10;;
4577;SDS011;2301;47.354;8.528;2023-04-24T14:43:24;4.60;;;1.93;;
4577;SDS011;2301;47.354;8.528;2023-04-24T14:45:51;3.60;;;1.80;;
4577;SDS011;2301;47.354;8.528;2023-04-24T14:48:18;5.07;;;2.00;;
4577;SDS011;2301;47.354;8.528;2023-04-24T14:50:48;4.90;;;2.00;;
4577;SDS011;2301;47.354;8.528;2023-04-24T14:53:19;3.40;;;2.07;;
4577;SDS011;2301;47.354;8.528;2023-04-24T14:55:50;5.70;;;2.17;;
4577;SDS011;2301;47.354;8.528;2023-04-24T14:58:21;2.63;;;1.83;;
4577;SDS011;2301;47.354;8.528;2023-04-24T15:00:51;3.70;;;1.80;;
4577;SDS011;2301;47.354;8.528;2023-04-24T15:03:19;5.63;;;2.00;;
4577;SDS011;2301;47.354;8.528;2023-04-24T15:05:48;2.43;;;1.53;;
4577;SDS011;2301;47.354;8.528;2023-04-24T15:08:15;4.20;;;1.80;;
4577;SDS011;2301;47.354;8.528;2023-04-24T15:10:42;2.50;;;1.63;;
4577;SDS011;2301;47.354;8.528;2023-04-24T15:13:10;3.10;;;1.97;;
4577;SDS011;2301;47.354;8.528;2023-04-24T15:15:37;2.40;;;1.60;;
4577;SDS011;2301;47.354;8.528;2023-04-24T15:18:05;3.93;;;1.90;;
4577;SDS011;2301;47.354;8.528;2023-04-24T15:20:33;2.80;;;1.83;;
4577;SDS011;2301;47.354;8.528;2023-04-24T15:23:02;2.00;;;1.50;;
4577;SDS011;2301;47.354;8.528;2023-04-24T15:25:29;4.00;;;1.67;;
4577;SDS011;2301;47.354;8.528;2023-04-24T15:27:56;3.33;;;1.70;;